sensor_id;sensor_type;location;lat;lon;timestamp;P1;durP1;ratioP1;P2;durP2;ratioP2
20110;SDS011;10216;42.658;23.248;2023-11-21T00:01:37;0.23;;;0.23;;
20110;SDS011;10216;42.658;23.248;2023-11-21T00:04:02;0.80;;;0.70;;
20110;SDS011;10216;42.658;23.248;2023-11-21T00:06:27;0.50;;;0.30;;
20110;SDS011;10216;42.658;23.248;2023-11-21T00:08:53;0.83;;;0.50;;
20110;SDS011;10216;42.658;23.248;2023-11-21T00:11:18;0.40;;;0.40;;
20110;SDS011;10216;42.658;23.248;2023-11-21T00:13:43;0.20;;;0.20;;
20110;SDS011;10216;42.658;23.248;2023-11-21T00:16:09;0.30;;;0.30;;
20110;SDS011;10216;42.658;23.248;2023-11-21T00:18:34;0.30;;;0.30;;
20110;SDS011;10216;42.658;23.248;2023-11-21T00:20:59;0.20;;;0.20;;
20110;SDS011;10216;42.658;23.248;2023-11-21T00:23:24;0.87;;;0.40;;
20110;SDS011;10216;42.658;23.248;2023-11-21T00:25:50;0.40;;;0.40;;
20110;SDS011;10216;42.658;23.248;2023-11-21T00:28:15;0.30;;;0.30;;
20110;SDS011;10216;42.658;23.248;2023-11-21T00:30:40;0.40;;;0.40;;
20110;SDS011;10216;42.658;23.248;2023-11-21T00:33:06;0.40;;;0.40;;
20110;SDS011;10216;42.658;23.248;2023-11-21T00:35:32;0.50;;;0.50;;
20110;SDS011;10216;42.658;23.248;2023-11-21T00:37:57;0.37;;;0.37;;
20110;SDS011;10216;42.658;23.248;2023-11-21T00:40:23;0.40;;;0.40;;
20110;SDS011;10216;42.658;23.248;2023-11-21T00:42:49;0.40;;;0.40;;
20110;SDS011;10216;42.658;23.248;2023-11-21T00:45:15;0.53;;;0.53;;
20110;SDS011;10216;42.658;23.248;2023-11-21T00:47:40;0.77;;;0.77;;
20110;SDS011;10216;42.658;23.248;2023-11-21T00:50:05;0.87;;;0.87;;
20110;SDS011;10216;42.658;23.248;2023-11-21T00:52:31;1.37;;;1.07;;
20110;SDS011;10216;42.658;23.248;2023-11-21T00:54:57;0.67;;;0.63;;
20110;SDS011;10216;42.658;23.248;2023-11-21T00:57:24;0.50;;;0.50;;
20110;SDS011;10216;42.658;23.248;2023-11-21T00:59:49;0.57;;;0.57;;
20110;SDS011;10216;42.658;23.248;2023-11-21T01:02:14;0.40;;;0.40;;
20110;SDS011;10216;42.658;23.248;2023-11-21T01:04:40;0.33;;;0.33;;
20110;SDS011;10216;42.658;23.248;2023-11-21T01:07:05;0.37;;;0.37;;
20110;SDS011;10216;42.658;23.248;2023-11-21T01:09:31;0.30;;;0.30;;
20110;SDS011;10216;42.658;23.248;2023-11-21T01:11:56;0.10;;;0.10;;
20110;SDS011;10216;42.658;23.248;2023-11-21T01:14:22;0.40;;;0.40;;
20110;SDS011;10216;42.658;23.248;2023-11-21T01:16:47;0.20;;;0.20;;
20110;SDS011;10216;42.658;23.248;2023-11-21T01:19:13;1.60;;;0.80;;
20110;SDS011;10216;42.658;23.248;2023-11-21T01:21:39;0.40;;;0.40;;
20110;SDS011;10216;42.658;23.248;2023-11-21T01:24:04;0.40;;;0.40;;
20110;SDS011;10216;42.658;23.248;2023-11-21T01:26:32;0.20;;;0.20;;
20110;SDS011;10216;42.658;23.248;2023-11-21T01:28:57;0.40;;;0.40;;
20110;SDS011;10216;42.658;23.248;2023-11-21T01:31:22;0.30;;;0.30;;
20110;SDS011;10216;42.658;23.248;2023-11-21T01:33:48;0.30;;;0.30;;
20110;SDS011;10216;42.658;23.248;2023-11-21T01:36:13;0.30;;;0.30;;
20110;SDS011;10216;42.658;23.248;2023-11-21T01:38:39;0.20;;;0.20;;
20110;SDS011;10216;42.658;23.248;2023-11-21T01:41:04;0.20;;;0.20;;
20110;SDS011;10216;42.658;23.248;2023-11-21T01:43:30;0.60;;;0.60;;
20110;SDS011;10216;42.658;23.248;2023-11-21T01:45:56;0.20;;;0.20;;
20110;SDS011;10216;42.658;23.248;2023-11-21T01:48:22;0.30;;;0.30;;
20110;SDS011;10216;42.658;23.248;2023-11-21T01:50:48;0.60;;;0.60;;
20110;SDS011;10216;42.658;23.248;2023-11-21T01:53:13;0.30;;;0.20;;
20110;SDS011;10216;42.658;23.248;2023-11-21T01:55:39;0.40;;;0.40;;
20110;SDS011;10216;42.658;23.248;2023-11-21T01:58:05;0.33;;;0.33;;
20110;SDS011;10216;42.658;23.248;2023-11-21T02:00:32;0.30;;;0.30;;
20110;SDS011;10216;42.658;23.248;2023-11-21T02:02:58;0.43;;;0.43;;
20110;SDS011;10216;42.658;23.248;2023-11-21T02:05:24;0.40;;;0.40;;
20110;SDS011;10216;42.658;23.248;2023-11-21T02:07:51;0.43;;;0.43;;
20110;SDS011;10216;42.658;23.248;2023-11-21T02:10:17;1.00;;;0.90;;
20110;SDS011;10216;42.658;23.248;2023-11-21T02:12:47;0.60;;;0.60;;
20110;SDS011;10216;42.658;23.248;2023-11-21T02:15:13;0.40;;;0.40;;
20110;SDS011;10216;42.658;23.248;2023-11-21T02:17:45;1.37;;;1.07;;
20110;SDS011;10216;42.658;23.248;2023-11-21T02:20:11;0.60;;;0.60;;
20110;SDS011;10216;42.658;23.248;2023-11-21T02:22:40;1.67;;;1.30;;
20110;SDS011;10216;42.658;23.248;2023-11-21T02:25:07;0.77;;;0.77;;
20110;SDS011;10216;42.658;23.248;2023-11-21T02:27:32;0.87;;;0.87;;
20110;SDS011;10216;42.658;23.248;2023-11-21T02:29:58;0.63;;;0.63;;
20110;SDS011;10216;42.658;23.248;2023-11-21T02:32:24;0.73;;;0.73;;
20110;SDS011;10216;42.658;23.248;2023-11-21T02:34:51;1.50;;;1.23;;
20110;SDS011;10216;42.658;23.248;2023-11-21T02:37:16;1.03;;;0.97;;
20110;SDS011;10216;42.658;23.248;2023-11-21T02:39:41;2.50;;;1.17;;
20110;SDS011;10216;42.658;23.248;2023-11-21T02:42:06;1.50;;;1.30;;
20110;SDS011;10216;42.658;23.248;2023-11-21T02:44:32;2.00;;;1.67;;
20110;SDS011;10216;42.658;23.248;2023-11-21T02:46:57;1.30;;;1.20;;
20110;SDS011;10216;42.658;23.248;2023-11-21T02:49:22;0.47;;;0.47;;
20110;SDS011;10216;42.658;23.248;2023-11-21T02:51:48;0.83;;;0.83;;
20110;SDS011;10216;42.658;23.248;2023-11-21T02:54:13;0.80;;;0.80;;
20110;SDS011;10216;42.658;23.248;2023-11-21T02:56:38;0.93;;;0.93;;
20110;SDS011;10216;42.658;23.248;2023-11-21T02:59:05;0.93;;;0.93;;
20110;SDS011;10216;42.658;23.248;2023-11-21T03:01:30;0.73;;;0.67;;
20110;SDS011;10216;42.658;23.248;2023-11-21T03:03:56;1.57;;;1.47;;
20110;SDS011;10216;42.658;23.248;2023-11-21T03:06:21;0.40;;;0.40;;
20110;SDS011;10216;42.658;23.248;2023-11-21T03:08:47;0.50;;;0.50;;
20110;SDS011;10216;42.658;23.248;2023-11-21T03:11:12;0.20;;;0.20;;
20110;SDS011;10216;42.658;23.248;2023-11-21T03:13:38;0.63;;;0.63;;
20110;SDS011;10216;42.658;23.248;2023-11-21T03:16:04;0.43;;;0.43;;
20110;SDS011;10216;42.658;23.248;2023-11-21T03:18:30;0.30;;;0.30;;
20110;SDS011;10216;42.658;23.248;2023-11-21T03:20:56;0.33;;;0.33;;
20110;SDS011;10216;42.658;23.248;2023-11-21T03:23:22;0.40;;;0.40;;
20110;SDS011;10216;42.658;23.248;2023-11-21T03:25:47;0.13;;;0.13;;
20110;SDS011;10216;42.658;23.248;2023-11-21T03:28:12;1.07;;;0.33;;
20110;SDS011;10216;42.658;23.248;2023-11-21T03:30:38;0.30;;;0.30;;
20110;SDS011;10216;42.658;23.248;2023-11-21T03:33:03;0.33;;;0.33;;
20110;SDS011;10216;42.658;23.248;2023-11-21T03:35:28;0.40;;;0.40;;
20110;SDS011;10216;42.658;23.248;2023-11-21T03:37:53;0.30;;;0.30;;
20110;SDS011;10216;42.658;23.248;2023-11-21T03:40:19;0.20;;;0.20;;
20110;SDS011;10216;42.658;23.248;2023-11-21T03:42:46;0.63;;;0.63;;
20110;SDS011;10216;42.658;23.248;2023-11-21T03:45:11;0.40;;;0.37;;
20110;SDS011;10216;42.658;23.248;2023-11-21T03:47:37;1.00;;;0.60;;
20110;SDS011;10216;42.658;23.248;2023-11-21T03:50:02;0.40;;;0.40;;
20110;SDS011;10216;42.658;23.248;2023-11-21T03:52:28;0.40;;;0.40;;
20110;SDS011;10216;42.658;23.248;2023-11-21T03:54:53;0.30;;;0.30;;
20110;SDS011;10216;42.658;23.248;2023-11-21T03:57:20;0.60;;;0.60;;
20110;SDS011;10216;42.658;23.248;2023-11-21T03:59:46;1.17;;;0.40;;
20110;SDS011;10216;42.658;23.248;2023-11-21T04:02:11;0.70;;;0.70;;
20110;SDS011;10216;42.658;23.248;2023-11-21T04:04:36;1.37;;;1.07;;
20110;SDS011;10216;42.658;23.248;2023-11-21T04:07:02;1.90;;;1.53;;
20110;SDS011;10216;42.658;23.248;2023-11-21T04:09:28;1.80;;;1.70;;
20110;SDS011;10216;42.658;23.248;2023-11-21T04:11:53;2.40;;;1.80;;
20110;SDS011;10216;42.658;23.248;2023-11-21T04:14:18;1.83;;;1.70;;
20110;SDS011;10216;42.658;23.248;2023-11-21T04:16:44;2.07;;;1.77;;
20110;SDS011;10216;42.658;23.248;2023-11-21T04:19:09;2.17;;;1.40;;
20110;SDS011;10216;42.658;23.248;2023-11-21T04:21:35;2.47;;;1.27;;
20110;SDS011;10216;42.658;23.248;2023-11-21T04:24:01;2.53;;;1.33;;
20110;SDS011;10216;42.658;23.248;2023-11-21T04:26:26;1.70;;;1.60;;
20110;SDS011;10216;42.658;23.248;2023-11-21T04:28:51;1.20;;;1.20;;
20110;SDS011;10216;42.658;23.248;2023-11-21T04:31:17;3.23;;;2.10;;
20110;SDS011;10216;42.658;23.248;2023-11-21T04:33:42;2.00;;;1.47;;
20110;SDS011;10216;42.658;23.248;2023-11-21T04:36:07;0.67;;;0.67;;
20110;SDS011;10216;42.658;23.248;2023-11-21T04:38:32;1.53;;;1.23;;
20110;SDS011;10216;42.658;23.248;2023-11-21T04:40:58;1.27;;;1.20;;
20110;SDS011;10216;42.658;23.248;2023-11-21T04:43:23;1.10;;;0.73;;
20110;SDS011;10216;42.658;23.248;2023-11-21T04:45:48;1.23;;;1.13;;
20110;SDS011;10216;42.658;23.248;2023-11-21T04:48:14;0.80;;;0.80;;
20110;SDS011;10216;42.658;23.248;2023-11-21T04:50:39;1.10;;;0.63;;
20110;SDS011;10216;42.658;23.248;2023-11-21T04:53:04;1.50;;;0.90;;
20110;SDS011;10216;42.658;23.248;2023-11-21T04:55:30;4.30;;;1.13;;
20110;SDS011;10216;42.658;23.248;2023-11-21T04:57:56;1.03;;;0.93;;
20110;SDS011;10216;42.658;23.248;2023-11-21T05:00:21;0.30;;;0.30;;
20110;SDS011;10216;42.658;23.248;2023-11-21T05:02:46;0.40;;;0.40;;
20110;SDS011;10216;42.658;23.248;2023-11-21T05:05:12;0.87;;;0.50;;
20110;SDS011;10216;42.658;23.248;2023-11-21T05:07:38;0.60;;;0.50;;
20110;SDS011;10216;42.658;23.248;2023-11-21T05:10:04;1.10;;;1.00;;
20110;SDS011;10216;42.658;23.248;2023-11-21T05:12:32;1.57;;;1.13;;
20110;SDS011;10216;42.658;23.248;2023-11-21T05:15:03;0.70;;;0.57;;
20110;SDS011;10216;42.658;23.248;2023-11-21T05:17:29;0.53;;;0.53;;
20110;SDS011;10216;42.658;23.248;2023-11-21T05:19:54;1.53;;;0.70;;
20110;SDS011;10216;42.658;23.248;2023-11-21T05:22:19;3.07;;;1.10;;
20110;SDS011;10216;42.658;23.248;2023-11-21T05:24:45;0.80;;;0.80;;
20110;SDS011;10216;42.658;23.248;2023-11-21T05:27:10;0.60;;;0.60;;
20110;SDS011;10216;42.658;23.248;2023-11-21T05:29:35;0.70;;;0.70;;
20110;SDS011;10216;42.658;23.248;2023-11-21T05:32:02;1.50;;;1.13;;
20110;SDS011;10216;42.658;23.248;2023-11-21T05:34:27;0.83;;;0.83;;
20110;SDS011;10216;42.658;23.248;2023-11-21T05:36:53;0.60;;;0.60;;
20110;SDS011;10216;42.658;23.248;2023-11-21T05:39:18;0.40;;;0.40;;
20110;SDS011;10216;42.658;23.248;2023-11-21T05:41:44;1.23;;;0.40;;
20110;SDS011;10216;42.658;23.248;2023-11-21T05:44:10;2.37;;;1.07;;
20110;SDS011;10216;42.658;23.248;2023-11-21T05:46:36;0.83;;;0.83;;
20110;SDS011;10216;42.658;23.248;2023-11-21T05:49:02;1.37;;;1.37;;
20110;SDS011;10216;42.658;23.248;2023-11-21T05:51:27;0.93;;;0.87;;
20110;SDS011;10216;42.658;23.248;2023-11-21T05:53:53;0.80;;;0.80;;
20110;SDS011;10216;42.658;23.248;2023-11-21T05:56:18;1.83;;;1.17;;
20110;SDS011;10216;42.658;23.248;2023-11-21T05:58:43;0.70;;;0.70;;
20110;SDS011;10216;42.658;23.248;2023-11-21T06:01:09;0.53;;;0.37;;
20110;SDS011;10216;42.658;23.248;2023-11-21T06:03:37;1.37;;;1.27;;
20110;SDS011;10216;42.658;23.248;2023-11-21T06:06:03;3.03;;;2.20;;
20110;SDS011;10216;42.658;23.248;2023-11-21T06:08:29;2.20;;;1.67;;
20110;SDS011;10216;42.658;23.248;2023-11-21T06:10:54;3.60;;;1.80;;
20110;SDS011;10216;42.658;23.248;2023-11-21T06:13:20;1.30;;;1.20;;
20110;SDS011;10216;42.658;23.248;2023-11-21T06:15:49;1.30;;;1.20;;
20110;SDS011;10216;42.658;23.248;2023-11-21T06:18:15;2.30;;;2.10;;
20110;SDS011;10216;42.658;23.248;2023-11-21T06:20:40;1.80;;;1.20;;
20110;SDS011;10216;42.658;23.248;2023-11-21T06:23:05;2.17;;;1.90;;
20110;SDS011;10216;42.658;23.248;2023-11-21T06:25:31;2.40;;;2.17;;
20110;SDS011;10216;42.658;23.248;2023-11-21T06:28:01;7.53;;;5.83;;
20110;SDS011;10216;42.658;23.248;2023-11-21T06:30:26;12.67;;;5.17;;
20110;SDS011;10216;42.658;23.248;2023-11-21T06:32:51;4.43;;;3.50;;
20110;SDS011;10216;42.658;23.248;2023-11-21T06:35:17;5.33;;;2.97;;
20110;SDS011;10216;42.658;23.248;2023-11-21T06:37:42;13.00;;;7.40;;
20110;SDS011;10216;42.658;23.248;2023-11-21T06:40:12;9.00;;;5.03;;
20110;SDS011;10216;42.658;23.248;2023-11-21T06:42:40;6.87;;;5.07;;
20110;SDS011;10216;42.658;23.248;2023-11-21T06:45:06;3.63;;;3.30;;
20110;SDS011;10216;42.658;23.248;2023-11-21T06:47:31;5.87;;;5.37;;
20110;SDS011;10216;42.658;23.248;2023-11-21T06:49:56;3.30;;;3.03;;
20110;SDS011;10216;42.658;23.248;2023-11-21T06:52:22;8.30;;;4.03;;
20110;SDS011;10216;42.658;23.248;2023-11-21T06:54:48;2.90;;;2.70;;
20110;SDS011;10216;42.658;23.248;2023-11-21T06:57:14;2.67;;;2.07;;
20110;SDS011;10216;42.658;23.248;2023-11-21T06:59:40;4.20;;;2.80;;
20110;SDS011;10216;42.658;23.248;2023-11-21T07:02:05;3.50;;;2.50;;
20110;SDS011;10216;42.658;23.248;2023-11-21T07:04:31;2.97;;;2.27;;
20110;SDS011;10216;42.658;23.248;2023-11-21T07:06:57;3.83;;;2.70;;
20110;SDS011;10216;42.658;23.248;2023-11-21T07:09:22;4.97;;;3.47;;
20110;SDS011;10216;42.658;23.248;2023-11-21T07:11:48;2.33;;;2.13;;
20110;SDS011;10216;42.658;23.248;2023-11-21T07:14:13;2.87;;;2.13;;
20110;SDS011;10216;42.658;23.248;2023-11-21T07:16:39;3.57;;;2.63;;
20110;SDS011;10216;42.658;23.248;2023-11-21T07:19:04;5.40;;;2.73;;
20110;SDS011;10216;42.658;23.248;2023-11-21T07:21:31;4.50;;;2.73;;
20110;SDS011;10216;42.658;23.248;2023-11-21T07:23:56;4.03;;;3.10;;
20110;SDS011;10216;42.658;23.248;2023-11-21T07:26:22;3.63;;;3.17;;
20110;SDS011;10216;42.658;23.248;2023-11-21T07:28:47;4.90;;;3.20;;
20110;SDS011;10216;42.658;23.248;2023-11-21T07:31:12;4.80;;;3.40;;
20110;SDS011;10216;42.658;23.248;2023-11-21T07:33:38;3.27;;;3.00;;
20110;SDS011;10216;42.658;23.248;2023-11-21T07:36:04;4.80;;;3.33;;
20110;SDS011;10216;42.658;23.248;2023-11-21T07:38:29;5.07;;;3.20;;
20110;SDS011;10216;42.658;23.248;2023-11-21T07:40:54;5.13;;;3.70;;
20110;SDS011;10216;42.658;23.248;2023-11-21T07:43:20;8.33;;;4.17;;
20110;SDS011;10216;42.658;23.248;2023-11-21T07:45:45;4.57;;;4.17;;
20110;SDS011;10216;42.658;23.248;2023-11-21T07:48:10;7.80;;;4.47;;
20110;SDS011;10216;42.658;23.248;2023-11-21T07:50:36;3.47;;;3.10;;
20110;SDS011;10216;42.658;23.248;2023-11-21T07:53:01;5.27;;;3.50;;
20110;SDS011;10216;42.658;23.248;2023-11-21T07:55:26;7.67;;;3.23;;
20110;SDS011;10216;42.658;23.248;2023-11-21T07:57:51;6.63;;;4.43;;
20110;SDS011;10216;42.658;23.248;2023-11-21T08:00:17;4.63;;;3.70;;
20110;SDS011;10216;42.658;23.248;2023-11-21T08:02:42;3.70;;;3.33;;
20110;SDS011;10216;42.658;23.248;2023-11-21T08:05:08;3.67;;;3.37;;
20110;SDS011;10216;42.658;23.248;2023-11-21T08:07:33;6.23;;;4.07;;
20110;SDS011;10216;42.658;23.248;2023-11-21T08:09:59;4.30;;;3.97;;
20110;SDS011;10216;42.658;23.248;2023-11-21T08:12:24;7.40;;;3.63;;
20110;SDS011;10216;42.658;23.248;2023-11-21T08:14:49;4.00;;;3.67;;
20110;SDS011;10216;42.658;23.248;2023-11-21T08:17:15;4.67;;;3.10;;
20110;SDS011;10216;42.658;23.248;2023-11-21T08:19:40;3.47;;;3.17;;
20110;SDS011;10216;42.658;23.248;2023-11-21T08:22:06;6.30;;;4.03;;
20110;SDS011;10216;42.658;23.248;2023-11-21T08:24:32;4.23;;;3.83;;
20110;SDS011;10216;42.658;23.248;2023-11-21T08:26:58;4.90;;;4.40;;
20110;SDS011;10216;42.658;23.248;2023-11-21T08:29:23;5.73;;;5.07;;
20110;SDS011;10216;42.658;23.248;2023-11-21T08:31:48;4.17;;;3.70;;
20110;SDS011;10216;42.658;23.248;2023-11-21T08:34:14;5.40;;;4.80;;
20110;SDS011;10216;42.658;23.248;2023-11-21T08:36:42;5.17;;;3.83;;
20110;SDS011;10216;42.658;23.248;2023-11-21T08:39:08;6.77;;;4.53;;
20110;SDS011;10216;42.658;23.248;2023-11-21T08:41:34;7.17;;;6.20;;
20110;SDS011;10216;42.658;23.248;2023-11-21T08:43:59;3.37;;;3.07;;
20110;SDS011;10216;42.658;23.248;2023-11-21T08:46:25;6.37;;;5.40;;
20110;SDS011;10216;42.658;23.248;2023-11-21T08:48:51;6.37;;;4.90;;
20110;SDS011;10216;42.658;23.248;2023-11-21T08:51:17;5.57;;;4.20;;
20110;SDS011;10216;42.658;23.248;2023-11-21T08:53:42;5.13;;;3.90;;
20110;SDS011;10216;42.658;23.248;2023-11-21T08:56:11;10.27;;;5.47;;
20110;SDS011;10216;42.658;23.248;2023-11-21T08:58:37;5.73;;;3.13;;
20110;SDS011;10216;42.658;23.248;2023-11-21T09:01:02;3.93;;;3.53;;
20110;SDS011;10216;42.658;23.248;2023-11-21T09:03:28;5.63;;;4.07;;
20110;SDS011;10216;42.658;23.248;2023-11-21T09:05:53;4.63;;;4.07;;
20110;SDS011;10216;42.658;23.248;2023-11-21T09:08:18;7.07;;;4.17;;
20110;SDS011;10216;42.658;23.248;2023-11-21T09:10:44;4.33;;;3.07;;
20110;SDS011;10216;42.658;23.248;2023-11-21T09:13:12;4.70;;;3.90;;
20110;SDS011;10216;42.658;23.248;2023-11-21T09:15:37;6.53;;;3.93;;
20110;SDS011;10216;42.658;23.248;2023-11-21T09:18:03;4.93;;;4.00;;
20110;SDS011;10216;42.658;23.248;2023-11-21T09:20:28;8.00;;;5.80;;
20110;SDS011;10216;42.658;23.248;2023-11-21T09:22:53;6.60;;;5.37;;
20110;SDS011;10216;42.658;23.248;2023-11-21T09:25:20;5.47;;;4.53;;
20110;SDS011;10216;42.658;23.248;2023-11-21T09:27:46;7.13;;;4.50;;
20110;SDS011;10216;42.658;23.248;2023-11-21T09:30:12;6.83;;;4.50;;
20110;SDS011;10216;42.658;23.248;2023-11-21T09:32:39;8.20;;;5.47;;
20110;SDS011;10216;42.658;23.248;2023-11-21T09:35:05;5.97;;;4.93;;
20110;SDS011;10216;42.658;23.248;2023-11-21T09:37:33;7.57;;;4.80;;
20110;SDS011;10216;42.658;23.248;2023-11-21T09:39:58;6.27;;;4.47;;
20110;SDS011;10216;42.658;23.248;2023-11-21T09:42:29;7.20;;;6.00;;
20110;SDS011;10216;42.658;23.248;2023-11-21T09:45:01;5.30;;;4.80;;
20110;SDS011;10216;42.658;23.248;2023-11-21T09:47:29;6.20;;;5.13;;
20110;SDS011;10216;42.658;23.248;2023-11-21T09:49:54;8.07;;;5.67;;
20110;SDS011;10216;42.658;23.248;2023-11-21T09:52:25;7.83;;;5.23;;
20110;SDS011;10216;42.658;23.248;2023-11-21T09:54:51;7.07;;;5.50;;
20110;SDS011;10216;42.658;23.248;2023-11-21T09:57:18;6.30;;;4.43;;
20110;SDS011;10216;42.658;23.248;2023-11-21T09:59:44;10.20;;;5.10;;
20110;SDS011;10216;42.658;23.248;2023-11-21T10:02:10;7.53;;;5.93;;
20110;SDS011;10216;42.658;23.248;2023-11-21T10:04:38;11.30;;;5.97;;
20110;SDS011;10216;42.658;23.248;2023-11-21T10:07:04;8.87;;;5.87;;
20110;SDS011;10216;42.658;23.248;2023-11-21T10:09:34;7.43;;;6.20;;
20110;SDS011;10216;42.658;23.248;2023-11-21T10:11:59;9.77;;;7.17;;
20110;SDS011;10216;42.658;23.248;2023-11-21T10:14:25;11.87;;;8.13;;
20110;SDS011;10216;42.658;23.248;2023-11-21T10:16:54;11.77;;;7.90;;
20110;SDS011;10216;42.658;23.248;2023-11-21T10:19:21;10.20;;;7.33;;
20110;SDS011;10216;42.658;23.248;2023-11-21T10:21:48;11.77;;;7.17;;
20110;SDS011;10216;42.658;23.248;2023-11-21T10:24:14;11.17;;;6.47;;
20110;SDS011;10216;42.658;23.248;2023-11-21T10:26:40;8.00;;;6.03;;
20110;SDS011;10216;42.658;23.248;2023-11-21T10:29:06;9.60;;;6.17;;
20110;SDS011;10216;42.658;23.248;2023-11-21T10:31:32;11.73;;;5.97;;
20110;SDS011;10216;42.658;23.248;2023-11-21T10:34:14;10.00;;;5.83;;
20110;SDS011;10216;42.658;23.248;2023-11-21T10:36:40;7.63;;;5.83;;
20110;SDS011;10216;42.658;23.248;2023-11-21T10:39:06;7.10;;;5.57;;
20110;SDS011;10216;42.658;23.248;2023-11-21T10:41:31;14.37;;;9.60;;
20110;SDS011;10216;42.658;23.248;2023-11-21T10:43:57;10.33;;;6.67;;
20110;SDS011;10216;42.658;23.248;2023-11-21T10:46:22;10.63;;;5.93;;
20110;SDS011;10216;42.658;23.248;2023-11-21T10:48:53;9.77;;;5.87;;
20110;SDS011;10216;42.658;23.248;2023-11-21T10:51:22;9.27;;;5.80;;
20110;SDS011;10216;42.658;23.248;2023-11-21T10:53:49;10.90;;;8.47;;
20110;SDS011;10216;42.658;23.248;2023-11-21T10:56:15;8.93;;;5.93;;
20110;SDS011;10216;42.658;23.248;2023-11-21T10:58:53;9.20;;;6.53;;
20110;SDS011;10216;42.658;23.248;2023-11-21T11:01:19;9.47;;;6.03;;
20110;SDS011;10216;42.658;23.248;2023-11-21T11:03:48;9.53;;;5.67;;
20110;SDS011;10216;42.658;23.248;2023-11-21T11:06:14;10.67;;;5.90;;
20110;SDS011;10216;42.658;23.248;2023-11-21T11:08:40;8.33;;;5.23;;
20110;SDS011;10216;42.658;23.248;2023-11-21T11:11:06;7.03;;;5.60;;
20110;SDS011;10216;42.658;23.248;2023-11-21T11:13:31;7.80;;;5.50;;
20110;SDS011;10216;42.658;23.248;2023-11-21T11:16:00;8.77;;;5.67;;
20110;SDS011;10216;42.658;23.248;2023-11-21T11:18:27;8.47;;;5.60;;
20110;SDS011;10216;42.658;23.248;2023-11-21T11:21:01;8.53;;;6.37;;
20110;SDS011;10216;42.658;23.248;2023-11-21T11:23:39;10.07;;;6.40;;
20110;SDS011;10216;42.658;23.248;2023-11-21T11:31:10;11.50;;;6.53;;
20110;SDS011;10216;42.658;23.248;2023-11-21T11:38:33;11.93;;;7.27;;
20110;SDS011;10216;42.658;23.248;2023-11-21T11:41:01;11.50;;;5.97;;
20110;SDS011;10216;42.658;23.248;2023-11-21T11:43:27;7.90;;;6.43;;
20110;SDS011;10216;42.658;23.248;2023-11-21T11:45:57;11.27;;;6.60;;
20110;SDS011;10216;42.658;23.248;2023-11-21T11:48:23;11.83;;;7.50;;
20110;SDS011;10216;42.658;23.248;2023-11-21T11:51:05;8.83;;;5.83;;
20110;SDS011;10216;42.658;23.248;2023-11-21T11:53:40;6.37;;;5.17;;
20110;SDS011;10216;42.658;23.248;2023-11-21T11:56:19;5.10;;;4.60;;
20110;SDS011;10216;42.658;23.248;2023-11-21T11:58:45;9.77;;;4.87;;
20110;SDS011;10216;42.658;23.248;2023-11-21T12:01:11;5.07;;;4.07;;
20110;SDS011;10216;42.658;23.248;2023-11-21T12:03:37;6.97;;;4.40;;
20110;SDS011;10216;42.658;23.248;2023-11-21T12:06:02;5.17;;;3.43;;
20110;SDS011;10216;42.658;23.248;2023-11-21T12:08:28;7.20;;;5.03;;
20110;SDS011;10216;42.658;23.248;2023-11-21T12:10:56;4.93;;;3.53;;
20110;SDS011;10216;42.658;23.248;2023-11-21T12:13:22;7.13;;;4.70;;
20110;SDS011;10216;42.658;23.248;2023-11-21T12:15:48;5.70;;;4.10;;
20110;SDS011;10216;42.658;23.248;2023-11-21T12:18:14;9.27;;;4.87;;
20110;SDS011;10216;42.658;23.248;2023-11-21T12:20:39;6.93;;;4.80;;
20110;SDS011;10216;42.658;23.248;2023-11-21T12:23:06;6.37;;;4.13;;
20110;SDS011;10216;42.658;23.248;2023-11-21T12:25:31;5.80;;;4.60;;
20110;SDS011;10216;42.658;23.248;2023-11-21T12:27:58;5.23;;;4.73;;
20110;SDS011;10216;42.658;23.248;2023-11-21T12:30:25;7.40;;;5.03;;
20110;SDS011;10216;42.658;23.248;2023-11-21T12:32:55;6.10;;;4.73;;
20110;SDS011;10216;42.658;23.248;2023-11-21T12:35:21;9.57;;;6.10;;
20110;SDS011;10216;42.658;23.248;2023-11-21T12:37:47;6.13;;;4.93;;
20110;SDS011;10216;42.658;23.248;2023-11-21T12:40:13;6.80;;;5.07;;
20110;SDS011;10216;42.658;23.248;2023-11-21T12:42:41;7.87;;;7.03;;
20110;SDS011;10216;42.658;23.248;2023-11-21T12:47:42;9.90;;;6.47;;
20110;SDS011;10216;42.658;23.248;2023-11-21T12:50:08;7.17;;;5.63;;
20110;SDS011;10216;42.658;23.248;2023-11-21T12:52:40;7.77;;;6.30;;
20110;SDS011;10216;42.658;23.248;2023-11-21T12:55:05;7.43;;;5.83;;
20110;SDS011;10216;42.658;23.248;2023-11-21T12:57:33;7.27;;;4.80;;
20110;SDS011;10216;42.658;23.248;2023-11-21T12:59:58;10.53;;;5.17;;
20110;SDS011;10216;42.658;23.248;2023-11-21T13:02:29;13.13;;;9.57;;
20110;SDS011;10216;42.658;23.248;2023-11-21T13:04:56;15.87;;;8.40;;
20110;SDS011;10216;42.658;23.248;2023-11-21T13:07:23;13.07;;;7.67;;
20110;SDS011;10216;42.658;23.248;2023-11-21T13:09:51;10.07;;;6.53;;
20110;SDS011;10216;42.658;23.248;2023-11-21T13:12:17;12.20;;;7.23;;
20110;SDS011;10216;42.658;23.248;2023-11-21T13:14:45;8.80;;;5.83;;
20110;SDS011;10216;42.658;23.248;2023-11-21T13:17:11;9.17;;;5.33;;
20110;SDS011;10216;42.658;23.248;2023-11-21T13:19:37;6.33;;;4.70;;
20110;SDS011;10216;42.658;23.248;2023-11-21T13:22:03;10.73;;;6.33;;
20110;SDS011;10216;42.658;23.248;2023-11-21T13:24:29;7.07;;;4.43;;
20110;SDS011;10216;42.658;23.248;2023-11-21T13:26:54;7.90;;;5.97;;
20110;SDS011;10216;42.658;23.248;2023-11-21T13:29:20;6.80;;;5.13;;
20110;SDS011;10216;42.658;23.248;2023-11-21T13:31:46;12.93;;;5.77;;
20110;SDS011;10216;42.658;23.248;2023-11-21T13:34:13;7.10;;;5.40;;
20110;SDS011;10216;42.658;23.248;2023-11-21T13:36:40;9.13;;;5.93;;
20110;SDS011;10216;42.658;23.248;2023-11-21T13:39:07;10.77;;;7.27;;
20110;SDS011;10216;42.658;23.248;2023-11-21T13:41:36;8.60;;;5.40;;
20110;SDS011;10216;42.658;23.248;2023-11-21T13:44:03;4.57;;;3.90;;
20110;SDS011;10216;42.658;23.248;2023-11-21T13:46:40;8.33;;;4.80;;
20110;SDS011;10216;42.658;23.248;2023-11-21T13:49:06;5.20;;;3.97;;
20110;SDS011;10216;42.658;23.248;2023-11-21T13:51:34;5.07;;;4.33;;
20110;SDS011;10216;42.658;23.248;2023-11-21T13:54:08;8.20;;;4.63;;
20110;SDS011;10216;42.658;23.248;2023-11-21T13:56:35;6.73;;;5.67;;
20110;SDS011;10216;42.658;23.248;2023-11-21T13:59:00;7.50;;;4.83;;
20110;SDS011;10216;42.658;23.248;2023-11-21T14:01:34;5.00;;;4.17;;
20110;SDS011;10216;42.658;23.248;2023-11-21T14:04:19;5.77;;;4.43;;
20110;SDS011;10216;42.658;23.248;2023-11-21T14:06:50;5.13;;;3.97;;
20110;SDS011;10216;42.658;23.248;2023-11-21T14:09:20;5.47;;;4.87;;
20110;SDS011;10216;42.658;23.248;2023-11-21T14:12:06;7.53;;;5.50;;
20110;SDS011;10216;42.658;23.248;2023-11-21T14:14:32;8.63;;;5.30;;
20110;SDS011;10216;42.658;23.248;2023-11-21T14:16:59;7.43;;;5.10;;
20110;SDS011;10216;42.658;23.248;2023-11-21T14:19:24;11.77;;;5.63;;
20110;SDS011;10216;42.658;23.248;2023-11-21T14:21:56;9.07;;;4.87;;
20110;SDS011;10216;42.658;23.248;2023-11-21T14:24:21;5.97;;;4.80;;
20110;SDS011;10216;42.658;23.248;2023-11-21T14:26:48;8.57;;;4.70;;
20110;SDS011;10216;42.658;23.248;2023-11-21T14:29:14;6.87;;;5.10;;
20110;SDS011;10216;42.658;23.248;2023-11-21T14:31:42;6.03;;;5.23;;
20110;SDS011;10216;42.658;23.248;2023-11-21T14:34:08;4.17;;;3.77;;
20110;SDS011;10216;42.658;23.248;2023-11-21T14:36:34;5.37;;;4.23;;
20110;SDS011;10216;42.658;23.248;2023-11-21T14:39:00;5.73;;;4.77;;
20110;SDS011;10216;42.658;23.248;2023-11-21T14:41:25;7.77;;;4.53;;